Time;durP1;ratioP1;P1;durP2;ratioP2;P2;SDS_P1;SDS_P2;PMS_P1;PMS_P2;Temp;Humidity;BMP_temperature;BMP_pressure;BME280_temperature;BME280_humidity;BME280_pressure;Samples;Min_cycle;Max_cycle;Signal;HPM_P1;HPM_P2
2021/07/25 00:01:21;;;;;;;0.00;0.00;;;;;;;20.82;48.82;99029.81;5030126;28;20030;-80
2021/07/25 00:03:46;;;;;;;0.10;0.10;;;;;;;20.78;48.92;99034.38;5029905;28;20091;-80
2021/07/25 00:06:18;;;;;;;0.00;0.00;;;;;;;20.74;49.10;99025.34;5030040;28;20450;-80
2021/07/25 00:08:43;;;;;;;0.10;0.10;;;;;;;20.70;49.06;99032.56;5029859;28;20120;-79
2021/07/25 00:11:10;;;;;;;0.10;0.10;;;;;;;20.66;49.32;99020.81;5029988;28;20117;-80
2021/07/25 00:13:40;;;;;;;0.00;0.00;;;;;;;20.64;49.46;99029.28;5029744;28;20025;-79
2021/07/25 00:16:09;;;;;;;0.10;0.10;;;;;;;20.61;49.57;99025.31;5029887;28;20017;-79
2021/07/25 00:18:34;;;;;;;0.10;0.10;;;;;;;20.60;49.68;99026.47;5029661;28;20079;-80
2021/07/25 00:21:00;;;;;;;0.10;0.10;;;;;;;20.60;49.74;99025.66;5030115;28;20065;-80
2021/07/25 00:23:27;;;;;;;0.10;0.10;;;;;;;20.58;49.63;99025.22;5029992;28;20061;-80
2021/07/25 00:25:56;;;;;;;0.05;0.05;;;;;;;20.55;49.60;99025.91;5029519;28;20081;-80
2021/07/25 00:28:31;;;;;;;0.10;0.10;;;;;;;20.53;49.67;99031.69;5032783;28;20017;-80
2021/07/25 00:31:02;;;;;;;0.10;0.10;;;;;;;20.50;49.59;99028.88;5033568;28;20049;-80
2021/07/25 00:33:29;;;;;;;0.10;0.10;;;;;;;20.48;49.63;99029.19;5033806;28;20029;-80
2021/07/25 00:35:55;;;;;;;0.10;0.10;;;;;;;20.46;49.59;99028.78;5033551;28;20037;-80
2021/07/25 00:38:20;;;;;;;0.10;0.10;;;;;;;20.42;49.81;99020.50;5033945;28;20083;-79
2021/07/25 00:40:51;;;;;;;0.10;0.10;;;;;;;20.37;49.65;99030.81;5033291;28;20026;-80
2021/07/25 00:43:27;;;;;;;0.10;0.10;;;;;;;20.34;50.00;99029.56;5033794;28;20040;-80
2021/07/25 00:45:56;;;;;;;0.10;0.10;;;;;;;20.28;49.81;99031.72;5033417;28;20034;-79
2021/07/25 00:48:23;;;;;;;0.10;0.10;;;;;;;20.25;49.80;99035.13;5033620;28;20044;-79
2021/07/25 00:50:49;;;;;;;0.10;0.10;;;;;;;20.23;50.22;99028.47;5033293;28;20025;-79
2021/07/25 00:53:17;;;;;;;0.10;0.10;;;;;;;20.17;49.90;99025.19;5033396;28;20037;-79
2021/07/25 00:55:43;;;;;;;0.10;0.10;;;;;;;20.12;50.04;99031.63;5033170;28;20037;-79
2021/07/25 00:58:09;;;;;;;0.10;0.10;;;;;;;20.05;50.15;99039.53;5033399;28;20037;-80
2021/07/25 01:00:35;;;;;;;0.10;0.10;;;;;;;19.97;50.54;99035.03;5033363;28;20025;-79
2021/07/25 01:03:09;;;;;;;0.10;0.10;;;;;;;19.92;50.76;99033.34;5033014;28;20030;-79
2021/07/25 01:06:05;;;;;;;0.08;0.08;;;;;;;19.84;51.08;99029.59;5033225;28;20026;-79
2021/07/25 01:08:42;;;;;;;0.10;0.10;;;;;;;19.77;51.42;99031.25;5033247;28;20492;-79
2021/07/25 01:11:10;;;;;;;0.10;0.10;;;;;;;19.72;51.71;99036.91;5033272;28;20036;-79
2021/07/25 01:13:39;;;;;;;0.10;0.10;;;;;;;19.68;51.55;99037.56;5033195;28;20060;-79
2021/07/25 01:16:04;;;;;;;0.10;0.10;;;;;;;19.64;51.93;99031.25;5032949;28;20033;-80
2021/07/25 01:18:30;;;;;;;0.10;0.10;;;;;;;19.64;52.09;99027.72;5032924;28;20026;-79
2021/07/25 01:20:55;;;;;;;0.10;0.10;;;;;;;19.61;52.53;99031.91;5032702;28;20099;-80
2021/07/25 01:23:22;;;;;;;0.10;0.10;;;;;;;19.57;52.47;99028.28;5033113;28;20087;-80
2021/07/25 01:25:53;;;;;;;0.08;0.08;;;;;;;19.51;52.60;99027.69;5032426;28;20045;-79
2021/07/25 01:28:40;;;;;;;0.10;0.10;;;;;;;19.52;52.78;99031.22;5032797;28;20043;-79
2021/07/25 01:31:12;;;;;;;0.10;0.10;;;;;;;19.50;52.86;99025.34;5033010;28;20047;-79
2021/07/25 01:33:40;;;;;;;0.10;0.10;;;;;;;19.47;52.77;99024.09;5034283;28;20030;-79
2021/07/25 01:36:06;;;;;;;;;;;;;;;19.48;52.85;99025.69;5033094;28;20484;-79
2021/07/25 01:38:31;;;;;;;0.10;0.10;;;;;;;19.44;52.78;99027.47;5032397;28;19943;-80
2021/07/25 01:41:09;;;;;;;0.10;0.10;;;;;;;19.41;52.73;99024.63;5032422;28;20036;-79
2021/07/25 01:43:41;;;;;;;0.10;0.10;;;;;;;19.37;52.63;99027.22;5032551;28;20381;-80
2021/07/25 01:46:07;;;;;;;0.10;0.10;;;;;;;19.34;52.65;99025.19;5032306;28;20044;-79
2021/07/25 01:48:33;;;;;;;0.10;0.10;;;;;;;19.31;52.85;99037.50;5032591;28;20037;-79
2021/07/25 01:50:59;;;;;;;0.03;0.03;;;;;;;19.29;52.71;99036.25;5032364;28;20450;-79
2021/07/25 01:53:25;;;;;;;0.10;0.10;;;;;;;19.26;52.83;99037.72;5032433;28;20083;-79
2021/07/25 01:55:50;;;;;;;0.10;0.10;;;;;;;19.24;52.70;99039.16;5032240;28;20408;-79
2021/07/25 01:58:16;;;;;;;0.10;0.10;;;;;;;19.22;52.86;99047.63;5032298;28;20025;-80
2021/07/25 02:00:41;;;;;;;0.10;0.10;;;;;;;19.20;52.95;99036.34;5032101;28;20032;-79
2021/07/25 02:03:07;;;;;;;0.10;0.10;;;;;;;19.16;52.92;99038.94;5032436;28;20449;-79
2021/07/25 02:05:39;;;;;;;0.08;0.08;;;;;;;19.13;53.01;99039.59;5033672;28;20433;-79
2021/07/25 02:08:04;;;;;;;0.10;0.10;;;;;;;19.10;53.24;99042.94;5032087;28;20060;-79
2021/07/25 02:10:30;;;;;;;0.10;0.10;;;;;;;19.07;53.26;99038.19;5031999;28;20484;-79
2021/07/25 02:12:56;;;;;;;0.00;0.00;;;;;;;19.07;53.16;99042.84;5031560;28;20031;-79
2021/07/25 02:15:21;;;;;;;0.10;0.10;;;;;;;19.06;53.41;99042.03;5031830;28;20026;-79
2021/07/25 02:17:47;;;;;;;0.10;0.10;;;;;;;19.05;53.49;99051.28;5031602;28;20086;-79
2021/07/25 02:20:12;;;;;;;0.10;0.10;;;;;;;19.01;53.80;99043.03;5031815;28;20083;-79
2021/07/25 02:22:38;;;;;;;0.10;0.10;;;;;;;18.99;53.80;99041.78;5031352;28;20036;-79
2021/07/25 02:25:04;;;;;;;0.00;0.00;;;;;;;18.97;53.66;99047.53;5031276;28;20132;-79
2021/07/25 02:27:29;;;;;;;0.28;0.28;;;;;;;18.92;53.67;99045.03;5031720;28;20021;-79
2021/07/25 02:29:55;;;;;;;0.10;0.10;;;;;;;18.91;53.76;99043.44;5031305;28;20553;-78
2021/07/25 02:32:20;;;;;;;0.10;0.10;;;;;;;18.90;53.86;99051.88;5031511;28;20514;-79
2021/07/25 02:34:46;;;;;;;0.10;0.10;;;;;;;18.89;53.75;99045.66;5031223;28;20033;-79
2021/07/25 02:37:12;;;;;;;0.00;0.00;;;;;;;18.87;53.88;99061.44;5031429;28;20485;-79
2021/07/25 02:39:40;;;;;;;0.10;0.10;;;;;;;18.83;54.20;99060.53;5031370;28;20401;-79
2021/07/25 02:42:06;;;;;;;0.03;0.03;;;;;;;18.77;53.85;99045.59;5030984;28;20025;-78
2021/07/25 02:44:33;;;;;;;0.10;0.10;;;;;;;18.75;54.03;99055.97;5031376;28;20405;-79
2021/07/25 02:46:58;;;;;;;0.10;0.10;;;;;;;18.73;53.89;99057.09;5031019;28;20045;-79
2021/07/25 02:49:23;;;;;;;0.10;0.10;;;;;;;18.71;54.29;99056.63;5031078;28;20034;-79
2021/07/25 02:51:49;;;;;;;0.10;0.10;;;;;;;18.69;54.37;99050.75;5030607;28;20033;-79
2021/07/25 02:54:14;;;;;;;0.10;0.10;;;;;;;18.67;54.16;99050.28;5031160;28;20021;-79
2021/07/25 02:56:40;;;;;;;0.10;0.10;;;;;;;18.68;54.57;99060.00;5031217;28;20084;-79
2021/07/25 02:59:05;;;;;;;0.05;0.05;;;;;;;18.70;54.54;99063.19;5030944;28;20036;-79
2021/07/25 03:01:30;;;;;;;0.10;0.10;;;;;;;18.69;54.39;99061.59;5031068;28;20489;-79
2021/07/25 03:03:56;;;;;;;0.10;0.10;;;;;;;18.72;54.62;99058.22;5030851;28;20076;-79
2021/07/25 03:06:21;;;;;;;0.93;0.75;;;;;;;18.72;54.59;99060.94;5030981;28;20405;-79
2021/07/25 03:08:47;;;;;;;0.10;0.10;;;;;;;18.72;54.85;99063.66;5030609;28;20116;-79
2021/07/25 03:11:12;;;;;;;0.10;0.10;;;;;;;18.74;54.68;99057.91;5030740;28;20025;-79
2021/07/25 03:13:38;;;;;;;0.10;0.10;;;;;;;18.72;54.76;99060.94;5030795;28;20124;-79
2021/07/25 03:16:05;;;;;;;0.10;0.10;;;;;;;18.78;54.61;99058.03;5030640;28;20036;-78
2021/07/25 03:18:31;;;;;;;0.10;0.10;;;;;;;18.84;54.27;99060.19;5030896;28;20404;-78
2021/07/25 03:20:57;;;;;;;0.00;0.00;;;;;;;18.94;54.19;99053.59;5030286;28;20083;-79
2021/07/25 03:23:23;;;;;;;0.10;0.10;;;;;;;19.07;53.97;99059.09;5030725;28;20442;-79
2021/07/25 03:25:48;;;;;;;0.10;0.10;;;;;;;19.20;53.60;99049.91;5030231;28;20053;-79
2021/07/25 03:28:14;;;;;;;0.00;0.00;;;;;;;19.40;52.99;99055.59;5030666;28;20025;-79
2021/07/25 03:30:40;;;;;;;0.10;0.10;;;;;;;19.58;52.67;99042.63;5030725;28;20037;-79
2021/07/25 03:33:05;;;;;;;0.10;0.10;;;;;;;19.81;51.88;99043.00;5030246;28;20029;-79
2021/07/25 03:35:31;;;;;;;0.10;0.10;;;;;;;20.06;51.42;99043.06;5030397;28;20029;-79
2021/07/25 03:37:56;;;;;;;0.10;0.10;;;;;;;20.33;50.74;99041.56;5030308;28;20029;-79
2021/07/25 03:40:29;;;;;;;0.10;0.10;;;;;;;20.64;50.08;99040.94;5030265;28;20045;-78
2021/07/25 03:42:54;;;;;;;0.10;0.10;;;;;;;20.97;49.60;99044.63;5030114;28;20041;-78
2021/07/25 03:45:19;;;;;;;0.10;0.10;;;;;;;21.27;48.82;99041.53;5030520;28;20040;-79
2021/07/25 03:47:45;;;;;;;0.10;0.10;;;;;;;21.59;47.90;99044.31;5030316;28;20025;-79
2021/07/25 03:50:11;;;;;;;0.10;0.10;;;;;;;21.94;47.10;99046.34;5029850;28;20036;-78
2021/07/25 03:52:36;;;;;;;0.10;0.10;;;;;;;22.27;46.46;99045.16;5030192;28;20033;-80
2021/07/25 03:55:06;;;;;;;0.10;0.10;;;;;;;22.61;45.51;99039.31;5030177;28;20030;-81
2021/07/25 03:57:32;;;;;;;0.10;0.10;;;;;;;22.91;44.76;99049.66;5030283;28;20053;-79
2021/07/25 03:59:57;;;;;;;0.00;0.00;;;;;;;23.23;44.17;99047.59;5030199;28;20029;-80
2021/07/25 04:02:23;;;;;;;0.03;0.03;;;;;;;23.55;43.47;99046.59;5030064;28;20393;-80
2021/07/25 04:04:48;;;;;;;0.10;0.10;;;;;;;23.90;42.85;99054.59;5029634;28;20036;-81
2021/07/25 04:07:14;;;;;;;0.10;0.10;;;;;;;24.26;41.91;99057.13;5030139;28;20083;-81
2021/07/25 04:09:39;;;;;;;0.00;0.00;;;;;;;24.63;41.36;99056.44;5030042;28;20036;-81
2021/07/25 04:12:05;;;;;;;0.00;0.00;;;;;;;24.97;40.55;99047.53;5029999;28;20022;-81
2021/07/25 04:14:30;;;;;;;0.10;0.10;;;;;;;25.30;40.13;99052.16;5031700;28;20036;-80
2021/07/25 04:16:56;;;;;;;0.00;0.00;;;;;;;25.63;39.72;99053.28;5030121;28;20075;-79
2021/07/25 04:19:21;;;;;;;0.00;0.00;;;;;;;25.96;39.01;99059.06;5029705;28;20036;-81
2021/07/25 04:21:47;;;;;;;0.00;0.00;;;;;;;26.20;38.83;99063.19;5029835;28;20030;-81
2021/07/25 04:24:12;;;;;;;0.00;0.00;;;;;;;26.53;38.16;99051.22;5029626;28;20051;-80
2021/07/25 04:26:38;;;;;;;0.00;0.00;;;;;;;26.88;37.72;99053.75;5029385;28;20546;-81
2021/07/25 04:29:03;;;;;;;0.00;0.00;;;;;;;27.11;37.44;99061.69;5031006;28;20549;-81
2021/07/25 04:31:29;;;;;;;0.10;0.10;;;;;;;27.31;37.27;99062.13;5029788;28;20033;-79
2021/07/25 04:33:55;;;;;;;0.17;0.17;;;;;;;27.59;36.73;99066.13;5029372;28;20022;-80
2021/07/25 04:36:25;;;;;;;0.00;0.00;;;;;;;27.94;36.30;99068.09;5029773;28;20436;-80
2021/07/25 04:38:54;;;;;;;0.00;0.00;;;;;;;28.17;35.76;99061.41;5029719;28;20025;-80
2021/07/25 04:41:25;;;;;;;0.00;0.00;;;;;;;28.40;35.44;99055.47;5029789;28;20029;-80
2021/07/25 04:44:05;;;;;;;0.00;0.00;;;;;;;28.46;35.26;99066.88;5029769;28;20029;-80
2021/07/25 04:46:34;;;;;;;1.63;0.05;;;;;;;28.49;35.50;99057.84;5030158;28;20057;-80
2021/07/25 04:49:10;;;;;;;0.00;0.00;;;;;;;28.66;35.23;99069.16;5029419;28;20030;-80
2021/07/25 04:51:37;;;;;;;0.00;0.00;;;;;;;28.75;34.99;99070.34;5029524;28;20037;-82
2021/07/25 04:54:12;;;;;;;0.20;0.20;;;;;;;28.91;34.67;99072.63;5029082;28;20476;-82
2021/07/25 04:56:59;;;;;;;0.10;0.10;;;;;;;29.02;34.19;99074.56;5029230;28;20029;-81
2021/07/25 04:59:49;;;;;;;0.30;0.25;;;;;;;29.14;34.42;99078.81;5029321;28;20036;-80
2021/07/25 05:02:16;;;;;;;0.10;0.10;;;;;;;29.27;34.41;99090.16;5025598;28;20091;-81
2021/07/25 05:04:43;;;;;;;0.00;0.00;;;;;;;29.28;34.07;99087.00;5029332;28;20583;-83
2021/07/25 05:07:12;;;;;;;0.10;0.10;;;;;;;29.29;34.26;99096.06;5029136;28;20084;-82
2021/07/25 05:09:42;;;;;;;0.00;0.00;;;;;;;29.25;34.54;99093.34;5029442;28;20091;-81
2021/07/25 05:12:17;;;;;;;0.08;0.08;;;;;;;29.27;34.32;99095.69;5028870;28;20026;-82
2021/07/25 05:15:01;;;;;;;0.00;0.00;;;;;;;29.18;34.19;99098.88;5033850;28;20544;-82
2021/07/25 05:17:36;;;;;;;0.00;0.00;;;;;;;29.19;34.22;99101.22;5033076;28;20401;-81
2021/07/25 05:20:03;;;;;;;1.13;0.80;;;;;;;28.96;34.76;99098.19;5033916;28;20028;-81
2021/07/25 05:22:41;;;;;;;0.10;0.10;;;;;;;28.95;34.94;99102.91;5034329;28;20040;-82
2021/07/25 05:25:07;;;;;;;0.10;0.10;;;;;;;29.04;34.90;99099.72;5032418;28;20502;-82
2021/07/25 05:27:44;;;;;;;0.10;0.10;;;;;;;29.23;34.60;99092.94;5032838;28;20049;-81
2021/07/25 05:30:12;;;;;;;0.25;0.25;;;;;;;29.30;34.63;99100.44;5032434;28;20033;-81
2021/07/25 05:32:37;;;;;;;0.38;0.38;;;;;;;29.45;34.19;99098.38;5032718;28;20183;-81
2021/07/25 05:35:04;;;;;;;0.10;0.10;;;;;;;29.66;33.77;99097.44;5032487;28;20494;-82
2021/07/25 05:37:29;;;;;;;0.00;0.00;;;;;;;29.84;33.17;99102.81;5032543;28;20385;-81
2021/07/25 05:39:55;;;;;;;0.10;0.10;;;;;;;29.99;33.28;99100.75;5032254;28;20029;-81
2021/07/25 05:42:20;;;;;;;0.08;0.08;;;;;;;30.22;32.80;99096.63;5032513;28;20033;-81
2021/07/25 05:44:46;;;;;;;0.17;0.17;;;;;;;30.38;32.85;99094.09;5032450;28;20057;-82
2021/07/25 05:47:11;;;;;;;0.00;0.00;;;;;;;30.53;32.50;99096.72;5032229;28;20040;-82
2021/07/25 05:49:37;;;;;;;0.00;0.00;;;;;;;30.64;32.15;99100.94;5032383;28;20025;-82
2021/07/25 05:52:02;;;;;;;0.13;0.13;;;;;;;30.55;32.44;99097.88;5032009;28;20145;-81
2021/07/25 05:54:28;;;;;;;0.17;0.17;;;;;;;30.75;31.75;99100.81;5032014;28;20033;-81
2021/07/25 05:56:53;;;;;;;0.10;0.10;;;;;;;30.82;31.39;99103.50;5032509;28;20029;-82
2021/07/25 05:59:18;;;;;;;0.43;0.40;;;;;;;30.91;31.44;99103.00;5031833;28;20025;-80
2021/07/25 06:01:45;;;;;;;1.08;0.30;;;;;;;31.16;30.86;99103.91;5032094;28;20033;-81
2021/07/25 06:04:10;;;;;;;0.22;0.20;;;;;;;31.24;30.36;99108.16;5031756;28;20086;-81
2021/07/25 06:06:36;;;;;;;0.03;0.03;;;;;;;31.38;30.47;99112.69;5031770;28;20029;-81
2021/07/25 06:09:06;;;;;;;0.08;0.08;;;;;;;31.36;30.38;99109.53;5031580;28;20029;-81
2021/07/25 06:11:32;;;;;;;0.15;0.15;;;;;;;31.48;29.47;99116.50;5031876;28;20069;-81
2021/07/25 06:13:58;;;;;;;0.10;0.10;;;;;;;31.40;30.12;99113.81;5031691;28;20049;-81
2021/07/25 06:16:23;;;;;;;0.63;0.10;;;;;;;31.49;29.99;99120.81;5031910;28;20443;-82
2021/07/25 06:18:49;;;;;;;0.00;0.00;;;;;;;31.43;29.82;99118.53;5031747;28;20113;-82
2021/07/25 06:21:15;;;;;;;0.17;0.17;;;;;;;31.49;30.26;99118.81;5031454;28;20033;-83
2021/07/25 06:23:40;;;;;;;0.00;0.00;;;;;;;31.74;29.62;99124.03;5031916;28;20064;-82
2021/07/25 06:26:06;;;;;;;0.00;0.00;;;;;;;31.98;29.43;99126.03;5030143;28;20087;-82
2021/07/25 06:28:31;;;;;;;1.27;0.20;;;;;;;32.26;29.29;99119.25;5031749;28;20030;-82
2021/07/25 06:30:57;;;;;;;0.10;0.10;;;;;;;32.48;28.51;99127.16;5031285;28;20477;-84
2021/07/25 06:33:22;;;;;;;0.17;0.17;;;;;;;32.50;28.95;99122.00;5031589;28;20025;-82
2021/07/25 06:35:48;;;;;;;0.00;0.00;;;;;;;32.53;28.47;99123.91;5031377;28;20026;-81
2021/07/25 06:38:15;;;;;;;0.22;0.22;;;;;;;32.48;28.85;99127.16;5031109;28;20082;-82
2021/07/25 06:40:43;;;;;;;0.00;0.00;;;;;;;32.50;28.88;99128.31;5031005;28;20048;-81
2021/07/25 06:43:09;;;;;;;0.35;0.22;;;;;;;32.31;28.89;99115.22;5031316;28;20428;-82
2021/07/25 06:45:35;;;;;;;0.00;0.00;;;;;;;32.16;29.30;99118.19;5031225;28;20055;-83
2021/07/25 06:48:01;;;;;;;0.20;0.20;;;;;;;31.83;29.91;99129.00;5030806;28;20188;-83
2021/07/25 06:50:29;;;;;;;0.10;0.10;;;;;;;31.70;30.21;99119.75;5031035;28;20560;-82
2021/07/25 06:52:56;;;;;;;0.00;0.00;;;;;;;31.50;29.87;99117.63;5031107;28;20029;-82
2021/07/25 06:55:30;;;;;;;0.10;0.10;;;;;;;31.36;29.71;99120.59;5031244;28;20033;-83
2021/07/25 06:57:56;;;;;;;0.20;0.20;;;;;;;31.17;30.06;99125.59;5031005;28;20439;-83
2021/07/25 07:00:22;;;;;;;0.20;0.10;;;;;;;31.02;30.52;99124.16;5031434;28;20025;-82
2021/07/25 07:02:51;;;;;;;0.35;0.35;;;;;;;30.80;31.28;99122.44;5030900;28;20029;-82
2021/07/25 07:05:22;;;;;;;1.48;0.77;;;;;;;30.74;31.35;99128.84;5030589;28;20481;-83
2021/07/25 07:07:49;;;;;;;0.10;0.10;;;;;;;30.77;31.11;99125.25;5030997;28;20551;-82
2021/07/25 07:10:16;;;;;;;;;;;;;;;30.54;31.21;99115.66;5031089;28;20033;-81
2021/07/25 07:12:42;;;;;;;0.07;0.07;;;;;;;30.22;31.75;99121.44;5030434;28;19909;-81
2021/07/25 07:15:09;;;;;;;3.95;0.22;;;;;;;30.07;31.94;99118.81;5030513;28;20267;-82
2021/07/25 07:17:37;;;;;;;0.30;0.30;;;;;;;29.77;32.36;99122.97;5030555;28;20377;-81
2021/07/25 07:20:03;;;;;;;0.00;0.00;;;;;;;29.56;33.09;99123.88;5031794;28;20032;-84
2021/07/25 07:22:30;;;;;;;0.08;0.08;;;;;;;29.55;32.94;99123.09;5030688;28;20025;-83
2021/07/25 07:24:56;;;;;;;0.40;0.40;;;;;;;29.33;32.96;99127.94;5032017;28;20072;-82
2021/07/25 07:27:23;;;;;;;0.08;0.08;;;;;;;29.35;32.53;99124.78;5035044;28;20026;-82
2021/07/25 07:29:49;;;;;;;0.57;0.15;;;;;;;29.13;33.41;99119.34;5032483;28;20044;-80
2021/07/25 07:32:15;;;;;;;0.25;0.20;;;;;;;29.05;33.57;99129.63;5029947;28;20033;-82
2021/07/25 07:34:40;;;;;;;0.08;0.08;;;;;;;28.88;33.80;99120.25;5030374;28;20405;-82
2021/07/25 07:37:05;;;;;;;0.03;0.03;;;;;;;28.78;34.26;99125.78;5029572;28;20618;-82
2021/07/25 07:39:31;;;;;;;0.20;0.20;;;;;;;28.66;32.91;99132.44;5030361;28;20029;-84
2021/07/25 07:41:57;;;;;;;0.20;0.20;;;;;;;28.56;33.45;99126.59;5030328;28;20060;-82
2021/07/25 07:44:23;;;;;;;0.03;0.03;;;;;;;28.43;34.47;99128.97;5029956;28;20034;-83
2021/07/25 07:46:48;;;;;;;0.50;0.50;;;;;;;28.33;34.10;99126.22;5030163;28;20029;-82
2021/07/25 07:49:13;;;;;;;0.13;0.13;;;;;;;28.31;34.47;99128.56;5029999;28;20443;-81
2021/07/25 07:51:39;;;;;;;0.32;0.32;;;;;;;28.17;33.79;99129.38;5030278;28;20100;-80
2021/07/25 07:54:04;;;;;;;0.20;0.10;;;;;;;28.00;34.33;99141.91;5029955;28;20041;-84
2021/07/25 07:56:31;;;;;;;0.20;0.20;;;;;;;27.87;34.94;99131.31;5030096;28;20029;-81
2021/07/25 07:58:57;;;;;;;0.90;0.32;;;;;;;27.79;33.65;99132.47;5030061;28;20040;-81
2021/07/25 08:01:23;;;;;;;0.30;0.30;;;;;;;27.70;32.05;99137.56;5030182;28;20022;-81
2021/07/25 08:03:48;;;;;;;0.85;0.43;;;;;;;27.62;33.33;99131.25;5035815;28;20025;-81
2021/07/25 08:06:13;;;;;;;1.90;0.35;;;;;;;27.56;32.97;99150.09;5032100;28;20097;-80
2021/07/25 08:08:39;;;;;;;0.28;0.20;;;;;;;27.50;33.38;99140.66;5030323;28;20066;-81
2021/07/25 08:11:04;;;;;;;0.10;0.10;;;;;;;27.44;33.63;99134.75;5029740;28;20083;-81
2021/07/25 08:13:30;;;;;;;0.13;0.13;;;;;;;27.40;33.96;99138.63;5029999;28;20037;-81
2021/07/25 08:15:55;;;;;;;0.08;0.08;;;;;;;27.38;33.73;99130.00;5030052;28;20480;-82
2021/07/25 08:18:20;;;;;;;2.75;0.32;;;;;;;27.30;33.82;99143.69;5029564;28;20232;-83
2021/07/25 08:20:46;;;;;;;0.10;0.10;;;;;;;27.30;33.19;99134.69;5029822;28;20083;-82
2021/07/25 08:23:11;;;;;;;0.30;0.30;;;;;;;27.27;34.05;99149.97;5029701;28;20033;-83
2021/07/25 08:25:37;;;;;;;0.00;0.00;;;;;;;27.26;33.06;99131.16;5030010;28;20139;-83
2021/07/25 08:28:02;;;;;;;1.45;0.82;;;;;;;27.20;32.80;99155.44;5030134;28;20076;-81
2021/07/25 08:30:30;;;;;;;0.13;0.13;;;;;;;27.12;32.84;99135.41;5029853;28;20080;-81
2021/07/25 08:32:55;;;;;;;0.03;0.03;;;;;;;27.10;33.09;99137.75;5030062;28;20119;-81
2021/07/25 08:35:21;;;;;;;0.00;0.00;;;;;;;27.12;33.17;99138.16;5029862;28;20073;-81
2021/07/25 08:37:46;;;;;;;0.22;0.22;;;;;;;27.09;33.28;99133.44;5030033;28;20465;-84
2021/07/25 08:40:15;;;;;;;0.63;0.63;;;;;;;27.13;33.58;99126.00;5029306;28;20045;-81
2021/07/25 08:42:57;;;;;;;0.03;0.03;;;;;;;27.12;33.26;99129.94;5029745;28;20492;-81
2021/07/25 08:45:23;;;;;;;0.30;0.30;;;;;;;27.29;33.35;99128.41;5029451;28;20030;-82
2021/07/25 08:47:54;;;;;;;0.10;0.10;;;;;;;27.41;33.71;99143.00;5031647;28;20029;-83
2021/07/25 08:50:27;;;;;;;0.10;0.10;;;;;;;27.40;34.30;99122.94;5033613;28;20069;-82
2021/07/25 08:52:54;;;;;;;0.43;0.43;;;;;;;27.43;34.23;99124.94;5033832;28;20061;-80
2021/07/25 08:55:21;;;;;;;0.17;0.17;;;;;;;27.51;33.49;99133.97;5033416;28;20044;-81
2021/07/25 08:57:49;;;;;;;0.00;0.00;;;;;;;27.63;34.60;99124.59;5034712;28;20029;-81
2021/07/25 09:00:17;;;;;;;0.10;0.10;;;;;;;27.73;34.63;99121.06;5033078;28;20030;-81
2021/07/25 09:02:44;;;;;;;0.15;0.15;;;;;;;27.79;29.92;99122.28;5033202;28;20064;-82
2021/07/25 09:05:10;;;;;;;0.40;0.40;;;;;;;27.71;29.13;99106.97;5033004;28;20029;-82
2021/07/25 09:07:39;;;;;;;0.63;0.63;;;;;;;27.74;30.25;99117.16;5033715;28;20025;-82
2021/07/25 09:10:17;;;;;;;0.17;0.17;;;;;;;27.72;27.58;99125.03;5032871;28;20055;-82
2021/07/25 09:12:43;;;;;;;0.43;0.43;;;;;;;27.70;29.08;99126.59;5033128;28;20120;-80
2021/07/25 09:15:30;;;;;;;0.15;0.15;;;;;;;27.70;30.29;99127.38;5032838;28;20029;-83
2021/07/25 09:17:58;;;;;;;0.47;0.47;;;;;;;27.75;31.40;99106.97;5033423;28;20029;-81
2021/07/25 09:20:29;;;;;;;0.55;0.55;;;;;;;27.84;31.43;99114.81;5032932;28;20068;-83
2021/07/25 09:23:08;;;;;;;0.00;0.00;;;;;;;27.88;30.81;99101.84;5033647;28;20124;-81
2021/07/25 09:25:55;;;;;;;0.25;0.25;;;;;;;27.89;29.89;99106.19;5032672;28;20045;-82
2021/07/25 09:28:28;;;;;;;0.00;0.00;;;;;;;27.85;28.05;99114.41;5032541;28;20025;-81
2021/07/25 09:30:54;;;;;;;0.00;0.00;;;;;;;27.80;28.46;99103.81;5033244;28;20907;-81
2021/07/25 09:33:33;;;;;;;0.15;0.15;;;;;;;27.78;26.64;99095.19;5032633;28;20367;-82
2021/07/25 09:36:11;;;;;;;0.10;0.10;;;;;;;27.84;27.95;99104.59;5033805;28;20120;-81
2021/07/25 09:38:37;;;;;;;0.15;0.15;;;;;;;27.90;26.45;99111.28;5032644;28;20029;-81
2021/07/25 09:41:15;;;;;;;0.40;0.40;;;;;;;27.88;27.28;99110.09;5032411;28;20485;-81
2021/07/25 09:43:40;;;;;;;0.10;0.10;;;;;;;27.88;27.39;99105.41;5032713;28;20499;-81
2021/07/25 09:46:06;;;;;;;0.03;0.03;;;;;;;27.81;26.70;99116.38;5032479;28;20038;-82
2021/07/25 09:48:33;;;;;;;0.52;0.52;;;;;;;27.77;27.27;99090.84;5031997;28;20039;-83
2021/07/25 09:51:01;;;;;;;0.32;0.32;;;;;;;27.84;28.36;99101.06;5032589;28;20029;-81
2021/07/25 09:53:44;;;;;;;;;;;;;;;27.84;26.56;99101.84;5032417;28;20029;-83
2021/07/25 09:56:29;;;;;;;0.40;0.40;;;;;;;27.91;27.88;99096.34;5032243;28;19909;-82
2021/07/25 09:58:57;;;;;;;0.60;0.60;;;;;;;27.93;27.46;99099.50;5031665;28;20033;-84
2021/07/25 10:01:39;;;;;;;0.20;0.20;;;;;;;27.93;27.16;99096.75;5032124;28;20532;-80
2021/07/25 10:04:19;;;;;;;0.00;0.00;;;;;;;27.99;27.51;99099.09;5032231;28;20091;-82
2021/07/25 10:06:46;;;;;;;0.10;0.10;;;;;;;28.05;27.50;99094.81;5032199;28;20030;-81
2021/07/25 10:09:16;;;;;;;0.25;0.25;;;;;;;28.08;27.77;99099.53;5033065;28;20116;-80
2021/07/25 10:11:52;;;;;;;0.25;0.25;;;;;;;28.17;27.55;99094.41;5032682;28;20033;-81
2021/07/25 10:14:19;;;;;;;0.10;0.10;;;;;;;28.30;27.10;99094.81;5031942;28;20025;-80
2021/07/25 10:16:51;;;;;;;0.10;0.10;;;;;;;28.37;26.79;99091.25;5032427;28;20568;-81
2021/07/25 10:19:19;;;;;;;0.10;0.10;;;;;;;28.39;27.12;99078.69;5032503;28;20397;-82
2021/07/25 10:21:45;;;;;;;0.10;0.10;;;;;;;28.44;26.70;99093.97;5031789;28;20032;-81
2021/07/25 10:24:13;;;;;;;0.15;0.13;;;;;;;28.41;25.12;99089.28;5031480;28;20021;-82
2021/07/25 10:26:39;;;;;;;0.40;0.40;;;;;;;28.41;25.12;99083.78;5031546;28;20088;-81
2021/07/25 10:29:05;;;;;;;0.22;0.22;;;;;;;28.34;26.93;99076.31;5031790;28;20065;-81
2021/07/25 10:31:33;;;;;;;1.08;0.25;;;;;;;28.36;27.29;99087.72;5031352;28;20091;-80
2021/07/25 10:34:01;;;;;;;0.28;0.28;;;;;;;28.34;26.27;99083.78;5031421;28;20029;-83
2021/07/25 10:36:29;;;;;;;0.00;0.00;;;;;;;28.40;26.83;99084.97;5031273;28;20499;-82
2021/07/25 10:38:54;;;;;;;;;;;;;;;28.46;25.79;99085.34;5031882;28;20487;-81
2021/07/25 10:41:24;;;;;;;0.22;0.22;;;;;;;28.47;25.11;99081.44;5031126;28;20004;-83
2021/07/25 10:43:50;;;;;;;0.00;0.00;;;;;;;28.43;24.73;99073.19;5032533;28;20033;-82
2021/07/25 10:46:23;;;;;;;0.38;0.38;;;;;;;28.26;25.19;99086.56;5031028;28;20116;-78
2021/07/25 10:49:03;;;;;;;0.47;0.47;;;;;;;28.17;25.86;99069.66;5032630;28;20064;-82
2021/07/25 10:51:29;;;;;;;0.28;0.28;;;;;;;28.19;27.12;99067.31;5030925;28;20444;-81
2021/07/25 10:54:24;;;;;;;0.15;0.15;;;;;;;28.29;25.98;99073.97;5031277;28;20025;-83
2021/07/25 10:57:07;;;;;;;0.00;0.00;;;;;;;28.30;25.31;99080.28;5030347;28;20033;-81
2021/07/25 10:59:50;;;;;;;0.10;0.10;;;;;;;28.32;25.48;99061.41;5032307;28;20091;-81
2021/07/25 11:02:21;;;;;;;0.00;0.00;;;;;;;28.37;25.32;99070.03;5030842;28;20056;-81
2021/07/25 11:04:50;;;;;;;0.13;0.03;;;;;;;28.42;24.90;99074.34;5031035;28;20025;-81
2021/07/25 11:07:21;;;;;;;0.10;0.10;;;;;;;28.44;24.88;99069.22;5030720;28;20025;-82
2021/07/25 11:10:00;;;;;;;0.45;0.30;;;;;;;28.41;25.85;99059.81;5031855;28;20038;-80
2021/07/25 11:12:47;;;;;;;0.00;0.00;;;;;;;28.40;26.27;99063.72;5030187;28;20032;-82
2021/07/25 11:15:32;;;;;;;0.00;0.00;;;;;;;28.48;27.37;99058.22;5030866;28;20468;-82
2021/07/25 11:17:59;;;;;;;0.25;0.25;;;;;;;28.54;26.49;99057.44;5030731;28;20408;-83
2021/07/25 11:20:37;;;;;;;0.30;0.30;;;;;;;28.52;25.31;99059.00;5030394;28;20025;-81
2021/07/25 11:23:13;;;;;;;;;;;;;;;28.55;25.89;99056.25;5031150;28;20455;-81
2021/07/25 11:25:39;;;;;;;0.00;0.00;;;;;;;28.63;26.56;99058.97;5030587;28;19974;-81
2021/07/25 11:28:06;;;;;;;0.10;0.10;;;;;;;28.67;26.47;99052.25;5030856;28;20029;-81
2021/07/25 11:30:53;;;;;;;0.20;0.10;;;;;;;28.69;26.75;99047.19;5032050;28;20112;-80
2021/07/25 11:33:38;;;;;;;0.25;0.25;;;;;;;28.78;27.24;99040.47;5030008;28;20035;-81
2021/07/25 11:36:09;;;;;;;0.00;0.00;;;;;;;28.88;26.86;99031.38;5029550;28;20112;-80
2021/07/25 11:38:38;;;;;;;0.00;0.00;;;;;;;28.94;25.72;99053.75;5031521;28;20087;-79
2021/07/25 11:41:05;;;;;;;0.10;0.10;;;;;;;28.96;26.02;99043.16;5030210;28;20063;-81